sensor_id;sensor_type;location;lat;lon;timestamp;pressure;altitude;pressure_sealevel;temperature;humidity
71107;BME280;58763;47.982;11.516;2022-07-23T00:02:21;94264.09;;;22.49;59.06
71107;BME280;58763;47.982;11.516;2022-07-23T00:04:46;94257.16;;;22.24;61.07
71107;BME280;58763;47.982;11.516;2022-07-23T00:07:12;94240.91;;;22.35;59.75
71107;BME280;58763;47.982;11.516;2022-07-23T00:09:37;94227.22;;;22.38;58.67
71107;BME280;58763;47.982;11.516;2022-07-23T00:12:03;94225.78;;;22.44;58.51
71107;BME280;58763;47.982;11.516;2022-07-23T00:14:28;94238.88;;;22.47;58.60
71107;BME280;58763;47.982;11.516;2022-07-23T00:16:53;94242.66;;;22.43;59.56
71107;BME280;58763;47.982;11.516;2022-07-23T00:19:19;94246.81;;;22.52;59.08
71107;BME280;58763;47.982;11.516;2022-07-23T00:21:44;94252.97;;;22.46;58.63
71107;BME280;58763;47.982;11.516;2022-07-23T00:24:10;94254.97;;;22.30;59.50
71107;BME280;58763;47.982;11.516;2022-07-23T00:26:35;94261.34;;;22.34;60.03
71107;BME280;58763;47.982;11.516;2022-07-23T00:29:00;94267.50;;;22.27;60.50
71107;BME280;58763;47.982;11.516;2022-07-23T00:31:26;94266.34;;;22.28;60.63
71107;BME280;58763;47.982;11.516;2022-07-23T00:33:52;94260.09;;;22.31;60.53
71107;BME280;58763;47.982;11.516;2022-07-23T00:36:22;94249.81;;;22.28;60.73
71107;BME280;58763;47.982;11.516;2022-07-23T00:38:49;94271.25;;;22.19;61.27
71107;BME280;58763;47.982;11.516;2022-07-23T00:41:14;94260.56;;;22.02;61.92
71107;BME280;58763;47.982;11.516;2022-07-23T00:43:39;94269.38;;;21.80;62.37
71107;BME280;58763;47.982;11.516;2022-07-23T00:46:05;94279.97;;;21.78;62.56
71107;BME280;58763;47.982;11.516;2022-07-23T00:48:30;94293.69;;;21.62;62.28
71107;BME280;58763;47.982;11.516;2022-07-23T00:50:56;94285.28;;;21.71;61.53
71107;BME280;58763;47.982;11.516;2022-07-23T00:53:22;94292.03;;;21.73;60.78
71107;BME280;58763;47.982;11.516;2022-07-23T00:55:47;94303.59;;;21.79;60.91
71107;BME280;58763;47.982;11.516;2022-07-23T00:58:13;94315.47;;;21.67;61.70
71107;BME280;58763;47.982;11.516;2022-07-23T01:00:39;94331.06;;;21.35;64.21
71107;BME280;58763;47.982;11.516;2022-07-23T01:03:05;94341.84;;;21.28;65.00
71107;BME280;58763;47.982;11.516;2022-07-23T01:05:30;94347.41;;;21.16;64.88
71107;BME280;58763;47.982;11.516;2022-07-23T01:07:56;94359.19;;;21.17;64.60
71107;BME280;58763;47.982;11.516;2022-07-23T01:10:21;94368.47;;;21.24;63.69
71107;BME280;58763;47.982;11.516;2022-07-23T01:13:03;94409.25;;;21.34;63.93
71107;BME280;58763;47.982;11.516;2022-07-23T01:15:30;94418.88;;;21.28;64.28
71107;BME280;58763;47.982;11.516;2022-07-23T01:17:55;94419.31;;;21.43;63.09
71107;BME280;58763;47.982;11.516;2022-07-23T01:20:21;94426.19;;;21.49;61.73
71107;BME280;58763;47.982;11.516;2022-07-23T01:22:47;94430.06;;;21.48;61.05
71107;BME280;58763;47.982;11.516;2022-07-23T01:25:13;94423.91;;;21.26;58.14
71107;BME280;58763;47.982;11.516;2022-07-23T01:27:39;94428.53;;;21.10;57.25
71107;BME280;58763;47.982;11.516;2022-07-23T01:30:05;94430.56;;;21.01;55.50
71107;BME280;58763;47.982;11.516;2022-07-23T01:32:31;94407.53;;;20.94;56.25
71107;BME280;58763;47.982;11.516;2022-07-23T01:34:57;94409.03;;;20.91;55.37
71107;BME280;58763;47.982;11.516;2022-07-23T01:37:22;94402.41;;;20.80;54.80
71107;BME280;58763;47.982;11.516;2022-07-23T01:39:47;94405.59;;;20.70;55.89
71107;BME280;58763;47.982;11.516;2022-07-23T01:42:13;94409.72;;;20.64;55.96
71107;BME280;58763;47.982;11.516;2022-07-23T01:44:38;94404.69;;;20.54;56.70
71107;BME280;58763;47.982;11.516;2022-07-23T01:47:04;94401.47;;;20.52;57.07
71107;BME280;58763;47.982;11.516;2022-07-23T01:49:29;94392.31;;;20.48;56.11
71107;BME280;58763;47.982;11.516;2022-07-23T01:51:55;94378.44;;;20.44;56.64
71107;BME280;58763;47.982;11.516;2022-07-23T01:54:30;94374.47;;;20.42;57.03
71107;BME280;58763;47.982;11.516;2022-07-23T01:56:57;94364.25;;;20.42;57.56
71107;BME280;58763;47.982;11.516;2022-07-23T01:59:22;94348.59;;;20.43;57.22
71107;BME280;58763;47.982;11.516;2022-07-23T02:01:48;94365.22;;;20.46;57.16
71107;BME280;58763;47.982;11.516;2022-07-23T02:04:17;94363.00;;;20.52;57.02
71107;BME280;58763;47.982;11.516;2022-07-23T02:06:42;94348.72;;;20.46;57.21
71107;BME280;58763;47.982;11.516;2022-07-23T02:09:07;94340.81;;;20.57;56.80
71107;BME280;58763;47.982;11.516;2022-07-23T02:11:33;94338.97;;;20.73;56.69
71107;BME280;58763;47.982;11.516;2022-07-23T02:13:58;94349.59;;;20.87;57.29
71107;BME280;58763;47.982;11.516;2022-07-23T02:16:24;94348.09;;;20.89;57.74
71107;BME280;58763;47.982;11.516;2022-07-23T02:18:49;94362.34;;;20.79;57.91
71107;BME280;58763;47.982;11.516;2022-07-23T02:21:15;94364.72;;;20.81;58.14
71107;BME280;58763;47.982;11.516;2022-07-23T02:23:40;94360.72;;;20.90;58.04
71107;BME280;58763;47.982;11.516;2022-07-23T02:26:05;94379.00;;;20.98;58.21
71107;BME280;58763;47.982;11.516;2022-07-23T02:28:31;94388.88;;;20.87;58.03
71107;BME280;58763;47.982;11.516;2022-07-23T02:30:56;94419.34;;;20.58;60.21
71107;BME280;58763;47.982;11.516;2022-07-23T02:33:22;94428.38;;;20.46;60.26
71107;BME280;58763;47.982;11.516;2022-07-23T02:35:47;94419.91;;;20.19;61.08
71107;BME280;58763;47.982;11.516;2022-07-23T02:38:13;94408.69;;;20.32;60.21
71107;BME280;58763;47.982;11.516;2022-07-23T02:40:38;94402.63;;;20.39;59.83
71107;BME280;58763;47.982;11.516;2022-07-23T02:43:03;94435.31;;;20.32;58.89
71107;BME280;58763;47.982;11.516;2022-07-23T02:45:29;94438.44;;;20.10;58.89
71107;BME280;58763;47.982;11.516;2022-07-23T02:47:54;94439.84;;;20.16;59.16
71107;BME280;58763;47.982;11.516;2022-07-23T02:50:20;94437.09;;;20.16;58.88
71107;BME280;58763;47.982;11.516;2022-07-23T02:52:45;94427.69;;;20.37;58.91
71107;BME280;58763;47.982;11.516;2022-07-23T02:55:11;94433.38;;;20.44;58.33
71107;BME280;58763;47.982;11.516;2022-07-23T02:57:37;94441.50;;;20.29;59.15
71107;BME280;58763;47.982;11.516;2022-07-23T03:00:04;94444.69;;;20.31;58.76
71107;BME280;58763;47.982;11.516;2022-07-23T03:02:31;94420.44;;;20.33;58.97
71107;BME280;58763;47.982;11.516;2022-07-23T03:04:56;94424.56;;;20.27;59.34
71107;BME280;58763;47.982;11.516;2022-07-23T03:07:22;94425.69;;;20.26;59.39
71107;BME280;58763;47.982;11.516;2022-07-23T03:09:47;94436.91;;;20.33;59.44
71107;BME280;58763;47.982;11.516;2022-07-23T03:12:13;94445.06;;;20.29;59.53
71107;BME280;58763;47.982;11.516;2022-07-23T03:14:39;94441.63;;;19.99;60.13
71107;BME280;58763;47.982;11.516;2022-07-23T03:17:04;94426.28;;;19.98;59.89
71107;BME280;58763;47.982;11.516;2022-07-23T03:19:30;94420.13;;;20.02;59.65
71107;BME280;58763;47.982;11.516;2022-07-23T03:21:55;94422.41;;;19.99;59.57
71107;BME280;58763;47.982;11.516;2022-07-23T03:24:21;94421.44;;;19.83;59.70
71107;BME280;58763;47.982;11.516;2022-07-23T03:26:49;94426.22;;;19.86;60.05
71107;BME280;58763;47.982;11.516;2022-07-23T03:29:14;94419.75;;;19.70;60.36
71107;BME280;58763;47.982;11.516;2022-07-23T03:31:40;94407.88;;;19.66;60.61
71107;BME280;58763;47.982;11.516;2022-07-23T03:34:05;94400.09;;;19.68;60.47
71107;BME280;58763;47.982;11.516;2022-07-23T03:36:31;94384.25;;;19.74;60.67
71107;BME280;58763;47.982;11.516;2022-07-23T03:38:56;94364.69;;;19.75;61.59
71107;BME280;58763;47.982;11.516;2022-07-23T03:41:22;94356.59;;;19.79;61.70
71107;BME280;58763;47.982;11.516;2022-07-23T03:43:47;94329.47;;;19.77;61.90
71107;BME280;58763;47.982;11.516;2022-07-23T03:46:12;94305.34;;;19.71;61.70
71107;BME280;58763;47.982;11.516;2022-07-23T03:48:38;94281.22;;;19.64;62.18
71107;BME280;58763;47.982;11.516;2022-07-23T03:51:04;94260.34;;;19.51;63.40
71107;BME280;58763;47.982;11.516;2022-07-23T03:53:29;94240.38;;;19.51;62.65
71107;BME280;58763;47.982;11.516;2022-07-23T03:55:55;94243.69;;;19.56;60.77
71107;BME280;58763;47.982;11.516;2022-07-23T03:58:20;94260.41;;;19.63;60.10
71107;BME280;58763;47.982;11.516;2022-07-23T04:00:46;94262.50;;;19.78;59.54
71107;BME280;58763;47.982;11.516;2022-07-23T04:03:11;94261.47;;;19.95;58.53
71107;BME280;58763;47.982;11.516;2022-07-23T04:05:37;94262.28;;;20.08;58.40
71107;BME280;58763;47.982;11.516;2022-07-23T04:08:02;94253.94;;;20.16;58.03
71107;BME280;58763;47.982;11.516;2022-07-23T04:10:28;94245.59;;;20.37;57.70
71107;BME280;58763;47.982;11.516;2022-07-23T04:12:53;94245.59;;;20.49;56.36
71107;BME280;58763;47.982;11.516;2022-07-23T04:15:19;94251.19;;;20.52;55.78
71107;BME280;58763;47.982;11.516;2022-07-23T04:17:44;94250.94;;;20.57;55.38
71107;BME280;58763;47.982;11.516;2022-07-23T04:20:11;94279.00;;;20.63;55.05
71107;BME280;58763;47.982;11.516;2022-07-23T04:22:37;94288.97;;;20.67;55.75
71107;BME280;58763;47.982;11.516;2022-07-23T04:25:02;94291.34;;;20.69;55.77
71107;BME280;58763;47.982;11.516;2022-07-23T04:27:28;94293.75;;;20.71;56.65
71107;BME280;58763;47.982;11.516;2022-07-23T04:29:53;94296.13;;;20.84;56.56
71107;BME280;58763;47.982;11.516;2022-07-23T04:32:19;94278.56;;;21.01;56.57
71107;BME280;58763;47.982;11.516;2022-07-23T04:34:44;94275.59;;;21.06;56.25
71107;BME280;58763;47.982;11.516;2022-07-23T04:37:09;94273.41;;;21.11;55.94
71107;BME280;58763;47.982;11.516;2022-07-23T04:39:35;94276.59;;;21.13;55.70
71107;BME280;58763;47.982;11.516;2022-07-23T04:42:00;94280.25;;;21.17;55.96
71107;BME280;58763;47.982;11.516;2022-07-23T04:44:26;94274.75;;;21.17;56.17
71107;BME280;58763;47.982;11.516;2022-07-23T04:46:51;94279.56;;;21.20;56.41
71107;BME280;58763;47.982;11.516;2022-07-23T04:49:17;94276.84;;;21.36;56.45
71107;BME280;58763;47.982;11.516;2022-07-23T04:51:42;94268.97;;;21.34;55.90
71107;BME280;58763;47.982;11.516;2022-07-23T04:54:07;94277.75;;;21.40;55.74
71107;BME280;58763;47.982;11.516;2022-07-23T04:56:33;94275.28;;;21.35;56.07
71107;BME280;58763;47.982;11.516;2022-07-23T04:58:58;94269.84;;;21.39;56.56
71107;BME280;58763;47.982;11.516;2022-07-23T05:01:24;94247.59;;;21.44;56.40
71107;BME280;58763;47.982;11.516;2022-07-23T05:03:49;94252.97;;;21.40;56.48
71107;BME280;58763;47.982;11.516;2022-07-23T05:06:15;94249.72;;;21.50;56.43
71107;BME280;58763;47.982;11.516;2022-07-23T05:08:41;94252.22;;;21.40;57.53
71107;BME280;58763;47.982;11.516;2022-07-23T05:11:06;94251.19;;;21.32;58.93
71107;BME280;58763;47.982;11.516;2022-07-23T05:13:32;94265.56;;;21.25;58.89
71107;BME280;58763;47.982;11.516;2022-07-23T05:15:57;94271.97;;;21.29;58.03
71107;BME280;58763;47.982;11.516;2022-07-23T05:18:23;94276.31;;;21.30;58.41
71107;BME280;58763;47.982;11.516;2022-07-23T05:20:48;94275.47;;;21.42;58.74
71107;BME280;58763;47.982;11.516;2022-07-23T05:23:13;94277.16;;;21.47;59.60
71107;BME280;58763;47.982;11.516;2022-07-23T05:25:39;94276.97;;;21.40;59.74
71107;BME280;58763;47.982;11.516;2022-07-23T05:28:05;94286.34;;;21.39;58.85
71107;BME280;58763;47.982;11.516;2022-07-23T05:30:30;94273.56;;;21.30;58.69
71107;BME280;58763;47.982;11.516;2022-07-23T05:32:55;94265.19;;;21.27;58.54
71107;BME280;58763;47.982;11.516;2022-07-23T05:35:21;94271.75;;;21.22;58.49
71107;BME280;58763;47.982;11.516;2022-07-23T05:37:46;94264.84;;;21.28;58.45
71107;BME280;58763;47.982;11.516;2022-07-23T05:40:12;94268.31;;;21.25;58.50
71107;BME280;58763;47.982;11.516;2022-07-23T05:42:39;94273.09;;;21.28;58.19
71107;BME280;58763;47.982;11.516;2022-07-23T05:45:05;94284.66;;;21.34;58.19
71107;BME280;58763;47.982;11.516;2022-07-23T05:47:48;94285.66;;;21.42;57.59
71107;BME280;58763;47.982;11.516;2022-07-23T05:50:15;94289.09;;;21.39;58.35
71107;BME280;58763;47.982;11.516;2022-07-23T05:52:41;94297.56;;;21.46;59.11
71107;BME280;58763;47.982;11.516;2022-07-23T05:55:08;94303.25;;;21.53;58.77
71107;BME280;58763;47.982;11.516;2022-07-23T05:57:34;94311.03;;;21.63;58.86
71107;BME280;58763;47.982;11.516;2022-07-23T06:00:00;94318.22;;;21.67;58.34
71107;BME280;58763;47.982;11.516;2022-07-23T06:02:26;94319.06;;;21.56;58.74
71107;BME280;58763;47.982;11.516;2022-07-23T06:04:51;94322.88;;;21.51;59.16
71107;BME280;58763;47.982;11.516;2022-07-23T06:07:17;94335.59;;;21.56;58.77
71107;BME280;58763;47.982;11.516;2022-07-23T06:09:42;94338.78;;;21.58;58.44
71107;BME280;58763;47.982;11.516;2022-07-23T06:12:08;94338.97;;;21.37;58.74
71107;BME280;58763;47.982;11.516;2022-07-23T06:14:33;94327.41;;;21.31;59.11
71107;BME280;58763;47.982;11.516;2022-07-23T06:16:58;94302.41;;;21.37;60.53
71107;BME280;58763;47.982;11.516;2022-07-23T06:19:25;94297.63;;;21.21;61.99
71107;BME280;58763;47.982;11.516;2022-07-23T06:21:50;94303.66;;;20.99;62.33
71107;BME280;58763;47.982;11.516;2022-07-23T06:24:15;94321.84;;;21.04;62.51
71107;BME280;58763;47.982;11.516;2022-07-23T06:26:41;94338.25;;;21.00;63.22
71107;BME280;58763;47.982;11.516;2022-07-23T06:29:06;94350.41;;;21.11;64.85
71107;BME280;58763;47.982;11.516;2022-07-23T06:31:32;94346.50;;;21.00;65.73
71107;BME280;58763;47.982;11.516;2022-07-23T06:33:58;94360.94;;;20.85;65.64
71107;BME280;58763;47.982;11.516;2022-07-23T06:36:24;94356.38;;;20.53;65.89
71107;BME280;58763;47.982;11.516;2022-07-23T06:38:49;94349.97;;;20.37;66.57
71107;BME280;58763;47.982;11.516;2022-07-23T06:41:15;94354.66;;;20.36;66.66
71107;BME280;58763;47.982;11.516;2022-07-23T06:43:40;94347.59;;;20.02;67.32
71107;BME280;58763;47.982;11.516;2022-07-23T06:46:06;94350.78;;;19.92;68.42
71107;BME280;58763;47.982;11.516;2022-07-23T06:48:31;94358.94;;;19.68;69.71
71107;BME280;58763;47.982;11.516;2022-07-23T06:50:56;94356.97;;;19.57;69.18
71107;BME280;58763;47.982;11.516;2022-07-23T06:53:23;94357.31;;;19.55;69.52
71107;BME280;58763;47.982;11.516;2022-07-23T06:55:48;94364.38;;;19.56;69.90
71107;BME280;58763;47.982;11.516;2022-07-23T06:58:13;94365.75;;;19.50;70.53
71107;BME280;58763;47.982;11.516;2022-07-23T07:00:40;94364.38;;;19.56;71.33
71107;BME280;58763;47.982;11.516;2022-07-23T07:03:05;94358.63;;;19.49;71.36
71107;BME280;58763;47.982;11.516;2022-07-23T07:05:31;94351.31;;;19.41;72.28
71107;BME280;58763;47.982;11.516;2022-07-23T07:07:56;94353.16;;;19.49;71.74
71107;BME280;58763;47.982;11.516;2022-07-23T07:10:22;94349.50;;;19.45;72.16
71107;BME280;58763;47.982;11.516;2022-07-23T07:12:48;94343.25;;;19.57;72.69
71107;BME280;58763;47.982;11.516;2022-07-23T07:15:13;94347.06;;;19.64;72.28
71107;BME280;58763;47.982;11.516;2022-07-23T07:17:39;94336.53;;;19.66;71.98
71107;BME280;58763;47.982;11.516;2022-07-23T07:20:05;94346.28;;;19.76;71.76
71107;BME280;58763;47.982;11.516;2022-07-23T07:22:31;94349.03;;;19.76;72.21
71107;BME280;58763;47.982;11.516;2022-07-23T07:24:56;94368.44;;;19.71;72.43
71107;BME280;58763;47.982;11.516;2022-07-23T07:27:22;94362.84;;;19.67;72.49
71107;BME280;58763;47.982;11.516;2022-07-23T07:29:47;94357.69;;;19.66;72.66
71107;BME280;58763;47.982;11.516;2022-07-23T07:32:13;94375.63;;;19.63;72.54
71107;BME280;58763;47.982;11.516;2022-07-23T07:34:38;94371.59;;;19.61;72.65
71107;BME280;58763;47.982;11.516;2022-07-23T07:37:03;94372.88;;;19.63;72.75
71107;BME280;58763;47.982;11.516;2022-07-23T07:39:29;94377.69;;;19.66;72.19
71107;BME280;58763;47.982;11.516;2022-07-23T07:41:54;94373.94;;;19.71;72.22
71107;BME280;58763;47.982;11.516;2022-07-23T07:44:20;94389.47;;;19.99;72.90
71107;BME280;58763;47.982;11.516;2022-07-23T07:46:45;94394.16;;;19.99;71.60
71107;BME280;58763;47.982;11.516;2022-07-23T07:49:11;94397.50;;;20.05;70.75
71107;BME280;58763;47.982;11.516;2022-07-23T07:51:36;94398.41;;;20.09;70.87
71107;BME280;58763;47.982;11.516;2022-07-23T07:54:01;94411.94;;;20.14;70.86
71107;BME280;58763;47.982;11.516;2022-07-23T07:56:27;94407.69;;;20.16;70.58
71107;BME280;58763;47.982;11.516;2022-07-23T07:58:52;94400.13;;;20.13;70.41
71107;BME280;58763;47.982;11.516;2022-07-23T08:01:18;94398.50;;;20.12;70.40
71107;BME280;58763;47.982;11.516;2022-07-23T08:03:45;94393.16;;;20.16;69.84
71107;BME280;58763;47.982;11.516;2022-07-23T08:06:10;94393.22;;;20.28;69.27
71107;BME280;58763;47.982;11.516;2022-07-23T08:08:36;94394.16;;;20.44;68.70
71107;BME280;58763;47.982;11.516;2022-07-23T08:11:01;94406.16;;;20.51;69.09
71107;BME280;58763;47.982;11.516;2022-07-23T08:13:27;94400.22;;;20.49;69.58
71107;BME280;58763;47.982;11.516;2022-07-23T08:15:52;94390.50;;;20.64;68.96
71107;BME280;58763;47.982;11.516;2022-07-23T08:18:20;94381.56;;;20.67;68.57
71107;BME280;58763;47.982;11.516;2022-07-23T08:20:46;94392.09;;;20.77;67.80
71107;BME280;58763;47.982;11.516;2022-07-23T08:23:11;94395.88;;;20.73;67.45
71107;BME280;58763;47.982;11.516;2022-07-23T08:25:42;94387.84;;;20.80;66.76
71107;BME280;58763;47.982;11.516;2022-07-23T08:28:10;94384.19;;;20.76;66.65
71107;BME280;58763;47.982;11.516;2022-07-23T08:30:37;94406.19;;;20.76;67.41
71107;BME280;58763;47.982;11.516;2022-07-23T08:33:05;94405.72;;;20.86;66.96
71107;BME280;58763;47.982;11.516;2022-07-23T08:35:39;94419.56;;;21.01;65.53
71107;BME280;58763;47.982;11.516;2022-07-23T08:38:07;94411.56;;;21.08;65.47
71107;BME280;58763;47.982;11.516;2022-07-23T08:40:35;94420.50;;;21.17;64.98
71107;BME280;58763;47.982;11.516;2022-07-23T08:43:05;94428.28;;;21.27;64.43
71107;BME280;58763;47.982;11.516;2022-07-23T08:45:35;94420.03;;;21.27;63.87
71107;BME280;58763;47.982;11.516;2022-07-23T08:48:01;94422.06;;;21.43;64.17
71107;BME280;58763;47.982;11.516;2022-07-23T08:50:27;94427.09;;;21.53;63.92
71107;BME280;58763;47.982;11.516;2022-07-23T08:52:53;94432.22;;;21.54;63.63
71107;BME280;58763;47.982;11.516;2022-07-23T08:55:20;94431.00;;;21.52;63.60
71107;BME280;58763;47.982;11.516;2022-07-23T08:57:49;94441.06;;;21.60;63.42
71107;BME280;58763;47.982;11.516;2022-07-23T09:00:16;94441.63;;;21.65;63.32
71107;BME280;58763;47.982;11.516;2022-07-23T09:02:43;94434.41;;;21.61;63.37
71107;BME280;58763;47.982;11.516;2022-07-23T09:05:10;94438.31;;;21.48;63.74
71107;BME280;58763;47.982;11.516;2022-07-23T09:08:05;94438.31;;;21.48;64.45
71107;BME280;58763;47.982;11.516;2022-07-23T09:10:55;94446.13;;;21.46;64.96
71107;BME280;58763;47.982;11.516;2022-07-23T09:13:40;94440.75;;;21.49;64.05
71107;BME280;58763;47.982;11.516;2022-07-23T09:23:43;94429.66;;;21.73;63.40
71107;BME280;58763;47.982;11.516;2022-07-23T09:26:21;94430.22;;;21.91;62.92
71107;BME280;58763;47.982;11.516;2022-07-23T09:28:55;94433.84;;;21.95;62.64
71107;BME280;58763;47.982;11.516;2022-07-23T09:31:23;94437.81;;;22.10;62.17
71107;BME280;58763;47.982;11.516;2022-07-23T09:33:49;94446.56;;;22.27;62.34
71107;BME280;58763;47.982;11.516;2022-07-23T09:36:14;94447.38;;;22.43;62.32
71107;BME280;58763;47.982;11.516;2022-07-23T09:38:50;94451.53;;;22.65;61.23
71107;BME280;58763;47.982;11.516;2022-07-23T09:41:16;94439.09;;;22.87;61.36
71107;BME280;58763;47.982;11.516;2022-07-23T09:43:43;94450.56;;;23.04;61.25
71107;BME280;58763;47.982;11.516;2022-07-23T09:46:26;94452.56;;;23.23;59.55
71107;BME280;58763;47.982;11.516;2022-07-23T09:48:53;94446.41;;;23.29;60.13
71107;BME280;58763;47.982;11.516;2022-07-23T09:51:19;94437.91;;;23.34;60.23
71107;BME280;58763;47.982;11.516;2022-07-23T09:54:05;94428.19;;;23.25;59.58
71107;BME280;58763;47.982;11.516;2022-07-23T09:56:32;94447.75;;;23.51;60.21
71107;BME280;58763;47.982;11.516;2022-07-23T09:58:59;94441.81;;;23.68;58.73
71107;BME280;58763;47.982;11.516;2022-07-23T10:01:33;94436.75;;;23.89;57.83
71107;BME280;58763;47.982;11.516;2022-07-23T10:03:59;94437.78;;;24.20;57.01
71107;BME280;58763;47.982;11.516;2022-07-23T10:06:26;94426.59;;;24.32;56.32
71107;BME280;58763;47.982;11.516;2022-07-23T10:08:55;94441.84;;;24.45;55.82
71107;BME280;58763;47.982;11.516;2022-07-23T10:11:23;94424.06;;;24.46;53.46
71107;BME280;58763;47.982;11.516;2022-07-23T10:13:49;94420.88;;;24.44;52.76
71107;BME280;58763;47.982;11.516;2022-07-23T10:16:21;94409.94;;;24.51;52.70
71107;BME280;58763;47.982;11.516;2022-07-23T10:18:48;94404.97;;;24.37;52.60
71107;BME280;58763;47.982;11.516;2022-07-23T10:21:21;94420.09;;;24.43;53.91
71107;BME280;58763;47.982;11.516;2022-07-23T10:24:10;94423.34;;;24.49;53.76
71107;BME280;58763;47.982;11.516;2022-07-23T10:26:51;94430.31;;;24.62;52.51
71107;BME280;58763;47.982;11.516;2022-07-23T10:29:36;94426.97;;;24.53;52.50
71107;BME280;58763;47.982;11.516;2022-07-23T10:32:36;94433.50;;;24.64;53.74
71107;BME280;58763;47.982;11.516;2022-07-23T10:38:18;94422.63;;;24.33;53.69
71107;BME280;58763;47.982;11.516;2022-07-23T10:41:03;94431.09;;;24.21;53.55
71107;BME280;58763;47.982;11.516;2022-07-23T10:43:30;94436.75;;;24.09;53.48
71107;BME280;58763;47.982;11.516;2022-07-23T10:46:22;94418.75;;;24.15;53.16
71107;BME280;58763;47.982;11.516;2022-07-23T10:49:24;94420.66;;;24.11;52.60
71107;BME280;58763;47.982;11.516;2022-07-23T10:52:20;94423.81;;;24.32;52.11
71107;BME280;58763;47.982;11.516;2022-07-23T10:54:51;94426.09;;;24.49;52.73
71107;BME280;58763;47.982;11.516;2022-07-23T10:57:27;94432.94;;;24.55;52.94
71107;BME280;58763;47.982;11.516;2022-07-23T11:02:31;94411.56;;;24.74;52.71
71107;BME280;58763;47.982;11.516;2022-07-23T11:05:05;94415.19;;;24.79;52.15
71107;BME280;58763;47.982;11.516;2022-07-23T11:07:30;94413.09;;;24.72;52.58
71107;BME280;58763;47.982;11.516;2022-07-23T11:09:56;94411.38;;;24.64;52.23
71107;BME280;58763;47.982;11.516;2022-07-23T11:15:13;94412.97;;;24.65;52.12
71107;BME280;58763;47.982;11.516;2022-07-23T11:25:08;94420.53;;;24.68;51.24
71107;BME280;58763;47.982;11.516;2022-07-23T11:27:41;94424.44;;;24.67;51.68
71107;BME280;58763;47.982;11.516;2022-07-23T11:30:09;94417.69;;;24.64;52.35
71107;BME280;58763;47.982;11.516;2022-07-23T11:32:40;94405.38;;;24.39;51.63
71107;BME280;58763;47.982;11.516;2022-07-23T11:35:23;94411.22;;;24.34;51.07
71107;BME280;58763;47.982;11.516;2022-07-23T11:37:49;94408.31;;;24.27;51.40
71107;BME280;58763;47.982;11.516;2022-07-23T11:40:19;94411.75;;;24.21;52.37
71107;BME280;58763;47.982;11.516;2022-07-23T11:43:03;94409.34;;;24.19;52.85
71107;BME280;58763;47.982;11.516;2022-07-23T11:45:40;94406.03;;;24.10;52.51
71107;BME280;58763;47.982;11.516;2022-07-23T11:48:08;94408.91;;;23.79;52.50
71107;BME280;58763;47.982;11.516;2022-07-23T11:50:35;94412.09;;;23.81;53.85
71107;BME280;58763;47.982;11.516;2022-07-23T11:53:01;94407.63;;;23.92;54.19
71107;BME280;58763;47.982;11.516;2022-07-23T11:55:27;94408.38;;;23.92;54.19
71107;BME280;58763;47.982;11.516;2022-07-23T11:57:54;94415.53;;;23.93;52.85
71107;BME280;58763;47.982;11.516;2022-07-23T12:00:25;94415.75;;;23.85;53.17
71107;BME280;58763;47.982;11.516;2022-07-23T12:02:59;94409.56;;;23.91;53.22
71107;BME280;58763;47.982;11.516;2022-07-23T12:05:29;94400.34;;;24.03;52.83
71107;BME280;58763;47.982;11.516;2022-07-23T12:07:56;94409.72;;;23.79;52.06
71107;BME280;58763;47.982;11.516;2022-07-23T12:10:40;94405.34;;;23.59;53.12
71107;BME280;58763;47.982;11.516;2022-07-23T12:13:09;94404.81;;;23.54;52.52
71107;BME280;58763;47.982;11.516;2022-07-23T12:15:47;94402.06;;;23.54;52.41
71107;BME280;58763;47.982;11.516;2022-07-23T12:18:21;94395.56;;;23.46;52.32
71107;BME280;58763;47.982;11.516;2022-07-23T12:20:52;94397.34;;;23.54;52.33
71107;BME280;58763;47.982;11.516;2022-07-23T12:23:19;94399.50;;;23.45;52.71
71107;BME280;58763;47.982;11.516;2022-07-23T12:25:47;94381.56;;;23.35;52.21
71107;BME280;58763;47.982;11.516;2022-07-23T12:28:15;94386.00;;;23.40;52.15
71107;BME280;58763;47.982;11.516;2022-07-23T12:30:52;94394.44;;;23.47;51.33
71107;BME280;58763;47.982;11.516;2022-07-23T12:35:47;94399.50;;;23.64;51.71
71107;BME280;58763;47.982;11.516;2022-07-23T12:38:15;94398.22;;;23.58;51.75
71107;BME280;58763;47.982;11.516;2022-07-23T12:40:49;94391.16;;;23.61;51.80
71107;BME280;58763;47.982;11.516;2022-07-23T12:45:54;94395.50;;;23.43;52.53
71107;BME280;58763;47.982;11.516;2022-07-23T12:51:00;94402.47;;;23.36;54.09
71107;BME280;58763;47.982;11.516;2022-07-23T12:56:04;94398.91;;;23.20;53.88
71107;BME280;58763;47.982;11.516;2022-07-23T12:58:52;94398.91;;;23.20;54.11
71107;BME280;58763;47.982;11.516;2022-07-23T13:04:08;94401.75;;;23.24;54.43
71107;BME280;58763;47.982;11.516;2022-07-23T13:06:38;94400.34;;;23.14;55.08
71107;BME280;58763;47.982;11.516;2022-07-23T13:09:07;94399.94;;;23.31;54.63
71107;BME280;58763;47.982;11.516;2022-07-23T13:11:33;94399.50;;;23.29;55.26
71107;BME280;58763;47.982;11.516;2022-07-23T13:13:59;94408.66;;;23.49;54.78
71107;BME280;58763;47.982;11.516;2022-07-23T13:16:30;94398.66;;;23.60;54.14
71107;BME280;58763;47.982;11.516;2022-07-23T13:18:56;94407.22;;;23.55;54.46
71107;BME280;58763;47.982;11.516;2022-07-23T13:21:23;94403.94;;;23.34;54.49
71107;BME280;58763;47.982;11.516;2022-07-23T13:23:49;94403.16;;;23.33;55.16
71107;BME280;58763;47.982;11.516;2022-07-23T13:26:14;94410.97;;;23.31;55.24
71107;BME280;58763;47.982;11.516;2022-07-23T13:28:40;94400.41;;;23.33;54.71
71107;BME280;58763;47.982;11.516;2022-07-23T13:31:05;94402.13;;;23.38;54.37